createdAt,value
2022-10-17T00:00:34.722Z,5.95
2022-10-17T00:01:46.239Z,6.65
2022-10-17T00:02:58.109Z,6.07
2022-10-17T00:04:09.574Z,4.00
2022-10-17T00:05:21.003Z,5.03
2022-10-17T00:06:32.531Z,3.35
2022-10-17T00:07:43.983Z,4.07
2022-10-17T00:08:55.440Z,3.92
2022-10-17T00:10:07.692Z,7.40
2022-10-17T00:11:21.070Z,6.57
2022-10-17T00:12:32.862Z,8.50
2022-10-17T00:13:44.807Z,10.68
2022-10-17T00:14:56.434Z,11.30
2022-10-17T00:16:08.172Z,11.77
2022-10-17T00:17:19.650Z,12.75
2022-10-17T00:18:31.085Z,21.02
2022-10-17T00:19:42.528Z,18.58
2022-10-17T00:20:53.982Z,12.50
2022-10-17T00:22:05.412Z,16.33
2022-10-17T00:23:16.950Z,18.40
2022-10-17T00:24:30.156Z,20.95
2022-10-17T00:25:41.753Z,13.60
2022-10-17T00:26:53.234Z,10.00
2022-10-17T00:28:04.801Z,10.98
2022-10-17T00:29:16.283Z,8.85
2022-10-17T00:30:27.733Z,7.70
2022-10-17T00:31:39.172Z,11.48
2022-10-17T00:32:50.802Z,7.10
2022-10-17T00:34:02.227Z,5.25
2022-10-17T00:35:13.927Z,6.90
2022-10-17T00:36:26.816Z,5.78
2022-10-17T00:37:38.560Z,7.57
2022-10-17T00:38:52.022Z,6.22
2022-10-17T00:40:04.100Z,6.60
2022-10-17T00:41:17.501Z,7.82
2022-10-17T00:42:29.168Z,7.35
2022-10-17T00:43:53.269Z,6.68
2022-10-17T00:45:13.726Z,8.43
2022-10-17T00:46:29.818Z,8.57
2022-10-17T00:47:42.063Z,8.27
2022-10-17T00:48:54.454Z,8.23
2022-10-17T00:50:06.792Z,8.43
2022-10-17T00:51:19.474Z,8.65
2022-10-17T00:52:31.318Z,5.15
2022-10-17T00:53:43.557Z,4.15
2022-10-17T00:54:58.009Z,4.57
2022-10-17T00:56:09.486Z,3.75
2022-10-17T00:57:20.985Z,4.85
2022-10-17T00:58:32.516Z,3.90
2022-10-17T00:59:45.116Z,4.22
2022-10-17T01:00:56.628Z,3.33
2022-10-17T01:02:16.599Z,4.65
2022-10-17T01:03:28.052Z,3.88
2022-10-17T01:04:41.258Z,4.28
2022-10-17T01:05:52.943Z,4.85
2022-10-17T01:07:04.474Z,4.10
2022-10-17T01:08:16.035Z,3.30
2022-10-17T01:09:27.584Z,3.80
2022-10-17T01:10:52.720Z,4.35
2022-10-17T01:12:19.321Z,3.28
2022-10-17T01:13:37.533Z,4.70
2022-10-17T01:15:04.266Z,3.63
2022-10-17T01:16:22.744Z,3.67
2022-10-17T01:17:46.637Z,4.25
2022-10-17T01:19:01.118Z,3.20
2022-10-17T01:20:42.104Z,3.40
2022-10-17T01:21:56.390Z,3.72
2022-10-17T01:23:26.218Z,4.78
2022-10-17T01:24:43.847Z,3.80
2022-10-17T01:26:00.259Z,4.53
2022-10-17T01:27:11.687Z,4.70
2022-10-17T01:30:00.931Z,6.72
2022-10-17T01:31:13.599Z,7.30
2022-10-17T01:32:35.586Z,6.70
2022-10-17T01:33:56.310Z,8.90
2022-10-17T01:35:13.391Z,10.63
2022-10-17T01:36:24.885Z,13.07
2022-10-17T01:37:39.393Z,11.15
2022-10-17T01:38:53.575Z,15.15
2022-10-17T01:40:31.413Z,11.30
2022-10-17T01:41:45.666Z,8.63
2022-10-17T01:43:05.186Z,11.65
2022-10-17T01:44:22.854Z,11.77
2022-10-17T01:45:37.347Z,11.13
2022-10-17T01:46:53.199Z,10.48
2022-10-17T01:48:07.195Z,10.73
2022-10-17T01:49:20.773Z,9.32
2022-10-17T01:50:34.339Z,9.68
2022-10-17T01:52:09.058Z,9.85
2022-10-17T01:53:32.497Z,10.75
2022-10-17T01:54:47.058Z,13.80
2022-10-17T01:56:00.607Z,13.30
2022-10-17T01:57:15.550Z,14.85
2022-10-17T01:58:30.054Z,24.65
2022-10-17T01:59:44.336Z,19.35
2022-10-17T02:00:56.482Z,22.38
2022-10-17T02:02:08.988Z,24.20
2022-10-17T02:03:21.261Z,18.40
2022-10-17T02:04:32.981Z,10.18
2022-10-17T02:05:44.903Z,10.05
2022-10-17T02:06:56.428Z,7.55
2022-10-17T02:08:08.248Z,7.38
2022-10-17T02:09:24.441Z,7.80
2022-10-17T02:10:35.882Z,9.50
2022-10-17T02:11:52.830Z,8.60
2022-10-17T02:13:09.970Z,7.72
2022-10-17T02:14:30.629Z,6.05
2022-10-17T02:15:48.299Z,7.00
2022-10-17T02:17:05.575Z,4.40
2022-10-17T02:18:31.217Z,3.97
2022-10-17T02:20:01.128Z,4.13
2022-10-17T02:21:20.162Z,4.13
2022-10-17T02:22:37.425Z,2.20
2022-10-17T02:23:55.764Z,2.95
2022-10-17T02:25:16.342Z,3.90
2022-10-17T02:26:30.622Z,4.35
2022-10-17T02:27:56.946Z,5.35
2022-10-17T02:29:11.363Z,7.18
2022-10-17T02:30:41.195Z,8.43
2022-10-17T02:32:02.986Z,7.50
2022-10-17T02:33:14.387Z,8.38
2022-10-17T02:34:34.483Z,8.02
2022-10-17T02:35:48.594Z,5.97
2022-10-17T02:37:02.068Z,5.88
2022-10-17T02:38:14.575Z,5.18
2022-10-17T02:39:27.955Z,4.40
2022-10-17T02:40:40.558Z,7.28
2022-10-17T02:41:52.838Z,7.45
2022-10-17T02:43:04.571Z,8.70
2022-10-17T02:44:16.073Z,12.07
2022-10-17T02:45:28.632Z,17.90
2022-10-17T02:46:41.540Z,17.00
2022-10-17T02:48:02.486Z,12.48
2022-10-17T02:49:18.921Z,10.60
2022-10-17T02:50:56.532Z,9.57
2022-10-17T02:52:17.264Z,9.07
2022-10-17T02:53:32.666Z,13.75
2022-10-17T02:54:48.077Z,10.07
2022-10-17T02:56:02.741Z,9.80
2022-10-17T02:57:29.443Z,8.15
2022-10-17T02:58:41.729Z,7.75
2022-10-17T02:59:53.651Z,6.95
2022-10-17T03:01:05.403Z,5.43
2022-10-17T03:02:17.000Z,7.00
2022-10-17T03:03:32.014Z,17.38
2022-10-17T03:04:44.168Z,20.17
2022-10-17T03:05:55.700Z,18.33
2022-10-17T03:07:07.217Z,19.77
2022-10-17T03:08:19.013Z,17.60
2022-10-17T03:09:30.473Z,16.52
2022-10-17T03:10:41.957Z,9.77
2022-10-17T03:11:53.531Z,10.13
2022-10-17T03:13:04.953Z,10.93
2022-10-17T03:14:16.407Z,7.85
2022-10-17T03:15:27.838Z,8.07
2022-10-17T03:16:39.391Z,8.98
2022-10-17T03:17:50.843Z,8.70
2022-10-17T03:19:02.312Z,9.52
2022-10-17T03:20:13.882Z,11.18
2022-10-17T03:21:25.394Z,11.38
2022-10-17T03:22:36.854Z,9.55
2022-10-17T03:23:48.301Z,11.32
2022-10-17T03:24:59.750Z,10.25
2022-10-17T03:26:11.274Z,11.63
2022-10-17T03:27:22.739Z,9.75
2022-10-17T03:28:34.460Z,12.50
2022-10-17T03:29:45.976Z,12.32
2022-10-17T03:30:57.428Z,12.30
2022-10-17T03:32:08.886Z,10.73
2022-10-17T03:33:20.325Z,11.82
2022-10-17T03:34:31.773Z,11.25
2022-10-17T03:35:43.293Z,10.85
2022-10-17T03:36:54.749Z,8.38
2022-10-17T03:38:06.221Z,7.57
2022-10-17T03:39:17.679Z,7.38
2022-10-17T03:40:29.117Z,7.20
2022-10-17T03:41:40.957Z,6.53
2022-10-17T03:42:52.437Z,6.57
2022-10-17T03:44:03.974Z,5.47
2022-10-17T03:45:15.453Z,7.38
2022-10-17T03:46:27.038Z,7.25
2022-10-17T03:47:38.540Z,7.32
2022-10-17T03:48:50.044Z,7.32
2022-10-17T03:50:01.462Z,8.32
2022-10-17T03:51:13.000Z,7.38
2022-10-17T03:52:24.440Z,7.68
2022-10-17T03:53:36.152Z,9.50
2022-10-17T03:54:47.661Z,7.32
2022-10-17T03:56:08.915Z,7.93
2022-10-17T03:57:20.370Z,7.50
2022-10-17T03:58:31.785Z,8.90
2022-10-17T03:59:43.299Z,8.32
2022-10-17T04:00:55.040Z,9.48
2022-10-17T04:02:06.489Z,8.10
2022-10-17T04:03:17.946Z,8.90
2022-10-17T04:04:29.364Z,10.50
2022-10-17T04:05:41.041Z,11.05
2022-10-17T04:06:52.531Z,9.68
2022-10-17T04:08:04.895Z,13.05
2022-10-17T04:09:16.706Z,13.63
2022-10-17T04:10:28.225Z,11.93
2022-10-17T04:11:39.964Z,11.45
2022-10-17T04:12:51.435Z,10.48
2022-10-17T04:14:02.982Z,9.50
2022-10-17T04:15:14.977Z,9.98
2022-10-17T04:16:26.819Z,9.68
2022-10-17T04:17:38.467Z,10.13
2022-10-17T04:18:53.222Z,10.60
2022-10-17T04:20:04.940Z,13.07
2022-10-17T04:21:16.613Z,16.73
2022-10-17T04:22:28.213Z,15.75
2022-10-17T04:23:39.947Z,16.42
2022-10-17T04:24:51.384Z,15.25
2022-10-17T04:26:03.608Z,24.25
2022-10-17T04:27:15.138Z,28.98
2022-10-17T04:28:27.243Z,18.63
2022-10-17T04:29:38.827Z,18.20
2022-10-17T04:31:00.003Z,15.90
2022-10-17T04:32:11.507Z,13.70
2022-10-17T04:33:22.950Z,11.05
2022-10-17T04:34:34.427Z,10.57
2022-10-17T04:35:54.612Z,12.02
2022-10-17T04:37:06.109Z,10.43
2022-10-17T04:38:17.572Z,11.80
2022-10-17T04:39:29.773Z,14.23
2022-10-17T04:40:41.224Z,17.63
2022-10-17T04:41:52.693Z,15.40
2022-10-17T04:43:04.164Z,16.08
2022-10-17T04:44:15.645Z,16.00
2022-10-17T04:45:27.084Z,18.52
2022-10-17T04:46:38.581Z,17.20
2022-10-17T04:47:50.001Z,17.98
2022-10-17T04:49:01.507Z,12.80
2022-10-17T04:50:12.975Z,11.93
2022-10-17T04:51:26.548Z,15.20
2022-10-17T04:52:38.324Z,13.02
2022-10-17T04:53:49.823Z,15.43
2022-10-17T04:55:01.282Z,15.18
2022-10-17T04:56:14.251Z,14.73
2022-10-17T04:57:25.760Z,14.70
2022-10-17T04:58:37.539Z,13.82
2022-10-17T04:59:48.981Z,14.82
2022-10-17T05:01:04.183Z,18.60
2022-10-17T05:02:15.955Z,15.77
2022-10-17T05:03:27.379Z,17.25
2022-10-17T05:04:38.818Z,15.63
2022-10-17T05:05:50.246Z,16.40
2022-10-17T05:07:01.922Z,14.63
2022-10-17T05:08:13.570Z,13.65
2022-10-17T05:09:25.645Z,13.02
2022-10-17T05:10:37.740Z,15.55
2022-10-17T05:11:49.192Z,13.98
2022-10-17T05:13:00.637Z,18.27
2022-10-17T05:14:12.133Z,12.75
2022-10-17T05:15:23.626Z,14.00
2022-10-17T05:16:35.832Z,13.00
2022-10-17T05:17:47.274Z,10.90
2022-10-17T05:18:59.179Z,11.20
2022-10-17T05:20:10.996Z,12.05
2022-10-17T05:21:23.708Z,11.20
2022-10-17T05:22:38.302Z,11.85
2022-10-17T05:23:52.902Z,10.77
2022-10-17T05:25:04.501Z,10.32
2022-10-17T05:26:16.135Z,9.68
2022-10-17T05:27:27.602Z,7.82
2022-10-17T05:28:39.172Z,9.00
2022-10-17T05:29:50.613Z,8.23
2022-10-17T05:31:05.850Z,7.53
2022-10-17T05:32:17.523Z,6.97
2022-10-17T05:33:29.014Z,6.82
2022-10-17T05:34:40.434Z,6.18
2022-10-17T05:35:51.885Z,7.53
2022-10-17T05:37:03.338Z,7.65
2022-10-17T05:38:14.872Z,10.70
2022-10-17T05:39:26.343Z,8.77
2022-10-17T05:40:39.461Z,6.90
2022-10-17T05:41:52.437Z,4.38
2022-10-17T05:43:03.949Z,5.40
2022-10-17T05:44:15.419Z,4.70
2022-10-17T05:45:26.882Z,4.88
2022-10-17T05:46:38.354Z,5.20
2022-10-17T05:47:49.861Z,5.93
2022-10-17T05:49:01.366Z,6.15
2022-10-17T05:50:12.857Z,5.40
2022-10-17T05:51:24.335Z,5.03
2022-10-17T05:52:36.117Z,6.03
2022-10-17T05:53:47.667Z,5.13
2022-10-17T05:54:59.185Z,4.72
2022-10-17T05:56:11.884Z,4.78
2022-10-17T05:57:25.230Z,3.45
2022-10-17T05:58:49.829Z,4.93
2022-10-17T06:00:02.302Z,5.40
2022-10-17T06:01:13.811Z,5.40
2022-10-17T06:02:25.494Z,4.70
2022-10-17T06:03:37.056Z,5.57
2022-10-17T06:04:50.272Z,5.50
2022-10-17T06:06:08.802Z,5.57
2022-10-17T06:07:20.302Z,4.50
2022-10-17T06:08:31.980Z,5.32
2022-10-17T06:09:43.488Z,5.70
2022-10-17T06:10:54.921Z,4.78
2022-10-17T06:12:06.806Z,4.50
2022-10-17T06:13:18.510Z,4.97
2022-10-17T06:14:29.961Z,5.03
2022-10-17T06:15:41.429Z,5.05
2022-10-17T06:16:52.853Z,6.25
2022-10-17T06:18:04.381Z,8.20
2022-10-17T06:19:15.935Z,9.13
2022-10-17T06:20:27.353Z,8.07
2022-10-17T06:21:39.035Z,6.55
2022-10-17T06:22:50.549Z,5.20
2022-10-17T06:24:02.137Z,4.63
2022-10-17T06:25:13.649Z,3.90
2022-10-17T06:26:25.105Z,5.50
2022-10-17T06:27:36.524Z,5.75
2022-10-17T06:28:48.148Z,5.55
2022-10-17T06:29:59.583Z,5.35
2022-10-17T06:31:15.516Z,5.03
2022-10-17T06:32:27.355Z,6.00
2022-10-17T06:33:39.013Z,6.93
2022-10-17T06:34:50.447Z,6.78
2022-10-17T06:36:01.939Z,6.80
2022-10-17T06:37:13.417Z,6.90
2022-10-17T06:38:24.903Z,6.88
2022-10-17T06:39:36.510Z,7.20
2022-10-17T06:40:47.977Z,5.93
2022-10-17T06:42:00.474Z,6.00
2022-10-17T06:43:12.029Z,6.63
2022-10-17T06:44:25.376Z,5.68
2022-10-17T06:45:38.611Z,6.72
2022-10-17T06:46:50.112Z,5.47
2022-10-17T06:48:02.161Z,5.50
2022-10-17T06:49:13.707Z,4.85
2022-10-17T06:50:27.094Z,5.55
2022-10-17T06:51:38.526Z,4.65
2022-10-17T06:52:52.914Z,4.85
2022-10-17T06:54:04.658Z,4.25
2022-10-17T06:55:19.591Z,4.13
2022-10-17T06:56:34.262Z,3.50
2022-10-17T06:57:45.685Z,4.28
2022-10-17T06:58:57.116Z,4.93
2022-10-17T07:00:08.889Z,4.07
2022-10-17T07:01:20.646Z,4.18
2022-10-17T07:02:32.290Z,3.92
2022-10-17T07:03:44.106Z,3.65
2022-10-17T07:04:59.317Z,3.78
2022-10-17T07:06:13.413Z,3.30
2022-10-17T07:07:25.071Z,3.50
2022-10-17T07:08:36.835Z,3.55
2022-10-17T07:09:48.273Z,3.63
2022-10-17T07:10:59.715Z,3.40
2022-10-17T07:12:12.827Z,3.58
2022-10-17T07:13:25.006Z,3.30
2022-10-17T07:14:36.530Z,4.05
2022-10-17T07:15:48.079Z,3.22
2022-10-17T07:17:01.946Z,3.35
2022-10-17T07:18:13.628Z,3.38
2022-10-17T07:19:25.410Z,3.50
2022-10-17T07:20:37.102Z,3.13
2022-10-17T07:21:49.254Z,5.25
2022-10-17T07:23:00.700Z,2.85
2022-10-17T07:24:12.206Z,2.83
2022-10-17T07:25:23.707Z,3.45
2022-10-17T07:26:35.209Z,3.50
2022-10-17T07:27:48.334Z,4.05
2022-10-17T07:28:59.820Z,3.67
2022-10-17T07:30:11.574Z,3.17
2022-10-17T07:31:23.243Z,2.88
2022-10-17T07:32:34.718Z,2.75
2022-10-17T07:35:02.747Z,3.50
2022-10-17T07:36:14.465Z,3.97
2022-10-17T07:37:28.767Z,3.17
2022-10-17T07:38:43.309Z,3.42
2022-10-17T07:39:59.509Z,3.05
2022-10-17T07:41:17.770Z,4.10
2022-10-17T07:42:33.023Z,3.35
2022-10-17T07:43:44.568Z,3.33
2022-10-17T07:44:56.021Z,3.97
2022-10-17T07:46:08.388Z,4.40
2022-10-17T07:47:19.952Z,3.13
2022-10-17T07:48:31.388Z,3.65
2022-10-17T07:49:45.456Z,3.28
2022-10-17T07:50:56.881Z,3.13
2022-10-17T07:52:12.154Z,3.38
2022-10-17T07:53:23.640Z,3.03
2022-10-17T07:54:35.061Z,2.80
2022-10-17T07:55:47.961Z,3.15
2022-10-17T07:56:59.393Z,2.78
2022-10-17T07:58:10.873Z,3.58
2022-10-17T07:59:24.725Z,2.58
2022-10-17T08:00:39.315Z,3.13
2022-10-17T08:01:52.893Z,3.95
2022-10-17T08:03:04.814Z,2.25
2022-10-17T08:04:17.083Z,3.03
2022-10-17T08:05:28.967Z,2.33
2022-10-17T08:06:40.409Z,2.55
2022-10-17T08:07:52.113Z,2.50
2022-10-17T08:09:03.700Z,2.28
2022-10-17T08:10:16.177Z,3.22
2022-10-17T08:11:27.858Z,2.90
2022-10-17T08:12:39.331Z,2.97
2022-10-17T08:13:50.837Z,3.00
2022-10-17T08:15:02.302Z,2.90
2022-10-17T08:16:14.955Z,3.55
2022-10-17T08:17:26.493Z,2.85
2022-10-17T08:18:39.125Z,2.72
2022-10-17T08:19:50.726Z,2.78
2022-10-17T08:21:03.573Z,2.78
2022-10-17T08:22:17.185Z,3.60
2022-10-17T08:23:28.970Z,3.10
2022-10-17T08:24:40.472Z,2.90
2022-10-17T08:25:51.953Z,2.75
2022-10-17T08:27:04.856Z,2.92
2022-10-17T08:28:16.307Z,2.72
2022-10-17T08:29:28.022Z,2.83
2022-10-17T08:30:39.528Z,3.42
2022-10-17T08:31:58.511Z,2.28
2022-10-17T08:33:12.972Z,2.47
2022-10-17T08:34:24.429Z,3.60
2022-10-17T08:35:35.999Z,2.17
2022-10-17T08:36:47.498Z,2.95
2022-10-17T08:38:01.525Z,2.35
2022-10-17T08:39:13.038Z,2.53
2022-10-17T08:40:26.184Z,2.85
2022-10-17T08:41:37.593Z,2.42
2022-10-17T08:42:51.826Z,2.65
2022-10-17T08:44:13.061Z,2.63
2022-10-17T08:45:32.482Z,2.20
2022-10-17T08:46:45.224Z,2.63
2022-10-17T08:47:58.997Z,2.50
2022-10-17T08:49:13.226Z,2.55
2022-10-17T08:50:30.540Z,2.60
2022-10-17T08:51:47.714Z,2.35
2022-10-17T08:53:18.106Z,2.65
2022-10-17T08:54:32.293Z,2.80
2022-10-17T08:55:48.514Z,3.40
2022-10-17T08:56:59.957Z,2.30
2022-10-17T08:58:15.548Z,2.33
2022-10-17T08:59:28.106Z,3.08
2022-10-17T09:00:41.356Z,3.03
2022-10-17T09:01:58.744Z,2.70
2022-10-17T09:03:10.617Z,2.45
2022-10-17T09:04:24.961Z,2.57
2022-10-17T09:05:39.379Z,3.38
2022-10-17T09:07:06.000Z,3.60
2022-10-17T09:08:20.500Z,3.33
2022-10-17T09:09:34.912Z,3.97
2022-10-17T09:10:52.719Z,6.83
2022-10-17T09:12:24.935Z,9.13
2022-10-17T09:13:48.378Z,6.83
2022-10-17T09:14:59.832Z,8.98
2022-10-17T09:16:14.151Z,7.33
2022-10-17T09:17:32.960Z,6.60
2022-10-17T09:18:47.798Z,5.03
2022-10-17T09:19:59.216Z,5.00
2022-10-17T09:21:10.676Z,3.93
2022-10-17T09:22:24.905Z,4.00
2022-10-17T09:23:47.231Z,4.30
2022-10-17T09:25:02.703Z,3.53
2022-10-17T09:26:14.343Z,3.80
2022-10-17T09:27:25.837Z,3.70
2022-10-17T09:28:38.675Z,6.17
2022-10-17T09:29:54.675Z,4.80
2022-10-17T09:31:13.545Z,3.57
2022-10-17T09:32:28.341Z,3.30
2022-10-17T09:33:58.957Z,3.30
2022-10-17T09:35:17.569Z,6.10
2022-10-17T09:36:30.151Z,10.53
2022-10-17T09:37:41.987Z,9.73
2022-10-17T09:39:05.124Z,3.53
2022-10-17T09:40:19.842Z,3.23
2022-10-17T09:41:46.924Z,2.90
2022-10-17T09:43:03.939Z,3.00
2022-10-17T09:44:15.381Z,2.53
2022-10-17T09:45:28.355Z,2.90
2022-10-17T09:46:41.981Z,3.00
2022-10-17T09:47:58.434Z,2.77
2022-10-17T09:49:20.016Z,2.30
2022-10-17T09:50:33.832Z,2.00
2022-10-17T09:51:48.139Z,2.27
2022-10-17T09:53:03.201Z,1.80
2022-10-17T09:54:23.305Z,1.93
2022-10-17T09:55:40.594Z,1.93
2022-10-17T09:57:01.659Z,2.30
2022-10-17T09:58:13.125Z,2.17
2022-10-17T09:59:43.525Z,2.27
2022-10-17T10:01:21.093Z,2.17
2022-10-17T10:02:40.849Z,2.00
2022-10-17T10:04:11.608Z,1.83
2022-10-17T10:05:23.131Z,1.80
2022-10-17T10:06:35.052Z,2.00
2022-10-17T10:08:02.942Z,3.97
2022-10-17T10:10:38.940Z,1.87
2022-10-17T10:11:52.117Z,2.03
2022-10-17T10:13:05.576Z,2.10
2022-10-17T10:14:20.080Z,2.20
2022-10-17T10:15:33.877Z,1.50
2022-10-17T10:16:47.339Z,2.20
2022-10-17T10:17:58.881Z,1.70
2022-10-17T10:19:32.112Z,1.70
2022-10-17T10:20:46.934Z,2.23
2022-10-17T10:22:02.940Z,2.20
2022-10-17T10:23:17.268Z,1.70
2022-10-17T10:24:30.980Z,2.20
2022-10-17T10:26:12.463Z,2.20
2022-10-17T10:27:24.228Z,2.00
2022-10-17T10:28:36.291Z,1.63
2022-10-17T10:29:53.376Z,1.73
2022-10-17T10:32:36.879Z,2.20
2022-10-17T10:33:50.932Z,1.77
2022-10-17T10:35:11.747Z,1.80
2022-10-17T10:36:23.358Z,2.10
2022-10-17T10:37:46.123Z,1.97
2022-10-17T10:39:01.214Z,1.50
2022-10-17T10:40:23.658Z,1.60
2022-10-17T10:41:46.400Z,1.63
2022-10-17T10:43:03.998Z,2.17
2022-10-17T10:44:17.699Z,2.47
2022-10-17T10:45:48.055Z,1.90
2022-10-17T10:47:07.071Z,2.03
2022-10-17T10:48:24.337Z,1.93
2022-10-17T10:49:36.194Z,1.67
2022-10-17T10:50:57.067Z,1.67
2022-10-17T10:52:10.524Z,1.40
2022-10-17T10:53:40.303Z,1.67
2022-10-17T10:54:56.305Z,1.67
2022-10-17T10:56:13.596Z,1.43
2022-10-17T10:57:27.822Z,1.67
2022-10-17T10:58:42.097Z,1.70
2022-10-17T11:00:12.993Z,2.27
2022-10-17T11:01:28.833Z,1.80
2022-10-17T11:02:46.360Z,2.07
2022-10-17T11:04:01.716Z,1.83
2022-10-17T11:05:27.765Z,1.70
2022-10-17T11:06:42.628Z,1.50
2022-10-17T11:08:06.557Z,1.57
2022-10-17T11:09:33.903Z,1.80
2022-10-17T11:11:07.228Z,1.53
2022-10-17T11:12:21.782Z,2.27
2022-10-17T11:13:44.747Z,2.03
2022-10-17T11:15:20.729Z,1.63
2022-10-17T11:16:54.646Z,1.60
2022-10-17T11:18:19.678Z,2.00
2022-10-17T11:19:40.297Z,1.73
2022-10-17T11:21:12.042Z,1.83
2022-10-17T11:22:38.242Z,2.73
2022-10-17T11:24:09.116Z,2.50
2022-10-17T11:25:35.373Z,2.17
2022-10-17T11:26:51.663Z,2.20
2022-10-17T11:28:05.837Z,1.57
2022-10-17T11:29:17.348Z,1.57
2022-10-17T11:30:32.523Z,1.70
2022-10-17T11:31:47.428Z,1.70
2022-10-17T11:33:00.719Z,2.57
2022-10-17T11:34:19.512Z,2.40
2022-10-17T11:35:34.204Z,2.07
2022-10-17T11:36:47.005Z,1.47
2022-10-17T11:38:06.079Z,1.50
2022-10-17T11:39:23.607Z,1.30
2022-10-17T11:40:36.700Z,1.50
2022-10-17T11:41:51.926Z,1.10
2022-10-17T11:43:04.016Z,1.60
2022-10-17T11:44:19.775Z,1.90
2022-10-17T11:45:35.167Z,1.97
2022-10-17T11:46:48.435Z,1.63
2022-10-17T11:48:06.404Z,2.30
2022-10-17T11:49:40.621Z,1.80
2022-10-17T11:52:56.436Z,16.37
2022-10-17T11:54:26.704Z,14.37
2022-10-17T11:55:38.809Z,7.73
2022-10-17T11:57:12.708Z,2.10
2022-10-17T11:58:43.679Z,1.40
2022-10-17T12:00:04.172Z,1.50
2022-10-17T12:01:32.889Z,1.40
2022-10-17T12:03:03.069Z,2.33
2022-10-17T12:04:17.297Z,1.63
2022-10-17T12:05:34.191Z,1.60
2022-10-17T12:07:04.357Z,1.40
2022-10-17T12:08:21.265Z,1.37
2022-10-17T12:09:38.777Z,1.43
2022-10-17T12:11:01.077Z,1.97
2022-10-17T12:12:24.266Z,1.67
2022-10-17T12:13:41.204Z,1.70
2022-10-17T12:14:53.021Z,1.10
2022-10-17T12:16:21.801Z,3.67
2022-10-17T12:17:35.419Z,10.57
2022-10-17T12:18:48.025Z,11.70
2022-10-17T12:20:17.435Z,7.00
2022-10-17T12:21:31.464Z,8.13
2022-10-17T12:23:09.782Z,6.93
2022-10-17T12:24:41.686Z,3.33
2022-10-17T12:26:05.955Z,1.77
2022-10-17T12:27:36.041Z,1.60
2022-10-17T12:28:48.262Z,1.27
2022-10-17T12:30:14.350Z,1.10
2022-10-17T12:31:33.442Z,1.10
2022-10-17T12:33:07.578Z,1.73
2022-10-17T12:34:22.313Z,2.10
2022-10-17T12:35:34.666Z,1.37
2022-10-17T12:36:46.199Z,7.80
2022-10-17T12:38:01.906Z,3.53
2022-10-17T12:39:17.622Z,2.03
2022-10-17T12:40:34.914Z,1.60
2022-10-17T12:41:46.602Z,1.53
2022-10-17T12:43:00.828Z,1.73
2022-10-17T12:44:15.406Z,1.43
2022-10-17T12:45:47.005Z,1.80
2022-10-17T12:46:58.690Z,1.40
2022-10-17T12:48:10.425Z,1.13
2022-10-17T12:49:24.978Z,1.40
2022-10-17T12:51:12.180Z,2.97
2022-10-17T12:52:34.830Z,1.90
2022-10-17T12:53:46.431Z,1.80
2022-10-17T12:55:18.056Z,2.10
2022-10-17T12:56:56.010Z,2.53
2022-10-17T12:58:12.834Z,3.10
2022-10-17T12:59:25.308Z,2.10
2022-10-17T13:01:11.592Z,2.30
2022-10-17T13:02:25.437Z,1.33
2022-10-17T13:03:42.239Z,1.40
2022-10-17T13:04:59.118Z,1.70
2022-10-17T13:06:37.966Z,1.43
2022-10-17T13:07:50.062Z,1.47
2022-10-17T13:09:07.017Z,2.50
2022-10-17T13:10:23.401Z,1.83
2022-10-17T13:11:36.215Z,1.90
2022-10-17T13:12:47.943Z,7.27
2022-10-17T13:14:00.791Z,6.17
2022-10-17T13:15:16.057Z,9.27
2022-10-17T13:16:28.748Z,4.03
2022-10-17T13:17:43.032Z,2.80
2022-10-17T13:18:55.604Z,2.07
2022-10-17T13:20:27.673Z,1.87
2022-10-17T13:21:52.542Z,1.67
2022-10-17T13:23:04.239Z,1.83
2022-10-17T13:24:24.754Z,1.80
2022-10-17T13:25:38.890Z,1.40
2022-10-17T13:26:51.131Z,2.10
2022-10-17T13:28:08.133Z,2.33
2022-10-17T13:29:21.907Z,2.20
2022-10-17T13:30:36.486Z,1.67
2022-10-17T13:31:53.323Z,1.60
2022-10-17T13:33:16.142Z,1.20
2022-10-17T13:34:27.984Z,1.67
2022-10-17T13:36:00.587Z,1.33
2022-10-17T13:37:13.469Z,1.47
2022-10-17T13:38:29.378Z,1.60
2022-10-17T13:39:54.805Z,1.63
2022-10-17T13:41:34.298Z,1.50
2022-10-17T13:42:43.472Z,1.83
2022-10-17T13:44:00.324Z,1.90
2022-10-17T13:45:25.876Z,1.80
2022-10-17T13:46:39.826Z,1.60
2022-10-17T13:47:51.474Z,1.57
2022-10-17T13:49:09.543Z,1.73
2022-10-17T13:50:43.213Z,1.70
2022-10-17T13:51:56.244Z,2.17
2022-10-17T13:53:13.829Z,1.37
2022-10-17T13:54:29.515Z,1.10
2022-10-17T13:56:09.074Z,1.50
2022-10-17T13:57:24.547Z,2.17
2022-10-17T13:58:42.924Z,3.40
2022-10-17T14:00:02.895Z,1.97
2022-10-17T14:01:15.155Z,1.80
2022-10-17T14:02:27.937Z,1.77
2022-10-17T14:03:48.492Z,1.87
2022-10-17T14:05:20.043Z,2.53
2022-10-17T14:06:32.082Z,1.67
2022-10-17T14:08:09.443Z,1.57
2022-10-17T14:09:18.130Z,1.70
2022-10-17T14:10:37.516Z,1.50
2022-10-17T14:12:10.675Z,1.70
2022-10-17T14:13:29.054Z,2.03
2022-10-17T14:15:05.146Z,1.53
2022-10-17T14:16:15.212Z,1.90
2022-10-17T14:17:28.908Z,1.73
2022-10-17T14:18:40.847Z,1.70
2022-10-17T14:20:14.072Z,1.60
2022-10-17T14:21:43.430Z,1.80
2022-10-17T14:23:21.392Z,1.10
2022-10-17T14:24:29.128Z,1.80
2022-10-17T14:25:40.829Z,1.73
2022-10-17T14:26:53.572Z,1.63
2022-10-17T14:28:09.539Z,1.30
2022-10-17T14:29:20.936Z,1.53
2022-10-17T14:30:55.790Z,1.47
2022-10-17T14:32:10.932Z,1.60
2022-10-17T14:33:27.707Z,1.03
2022-10-17T14:34:42.584Z,1.33
2022-10-17T14:35:55.457Z,1.53
2022-10-17T14:37:11.438Z,1.43
2022-10-17T14:38:23.103Z,1.30
2022-10-17T14:39:34.549Z,1.37
2022-10-17T14:40:49.976Z,1.60
2022-10-17T14:42:04.431Z,1.20
2022-10-17T14:43:20.681Z,1.30
2022-10-17T14:44:33.840Z,1.40
2022-10-17T14:45:46.020Z,1.27
2022-10-17T14:47:18.278Z,1.50
2022-10-17T14:48:33.438Z,1.47
2022-10-17T14:49:49.120Z,1.63
2022-10-17T14:51:09.670Z,1.57
2022-10-17T14:52:28.036Z,1.70
2022-10-17T14:53:40.030Z,1.87
2022-10-17T14:54:51.903Z,1.80
2022-10-17T14:56:21.937Z,1.40
2022-10-17T14:57:33.348Z,1.53
2022-10-17T14:58:44.804Z,1.97
2022-10-17T14:59:57.122Z,1.30
2022-10-17T15:01:08.633Z,2.50
2022-10-17T15:02:20.127Z,1.67
2022-10-17T15:03:31.757Z,1.50
2022-10-17T15:04:43.216Z,1.50
2022-10-17T15:05:55.313Z,1.93
2022-10-17T15:07:06.885Z,1.67
2022-10-17T15:08:19.298Z,2.90
2022-10-17T15:09:31.189Z,2.13
2022-10-17T15:10:43.603Z,4.13
2022-10-17T15:12:05.236Z,6.77
2022-10-17T15:13:27.742Z,11.87
2022-10-17T15:14:39.934Z,8.17
2022-10-17T15:15:52.411Z,8.97
2022-10-17T15:17:08.992Z,6.57
2022-10-17T15:18:20.478Z,5.70
2022-10-17T15:19:31.905Z,5.23
2022-10-17T15:20:43.484Z,8.13
2022-10-17T15:21:54.940Z,4.07
2022-10-17T15:23:06.710Z,6.40
2022-10-17T15:24:18.214Z,5.20
2022-10-17T15:25:30.509Z,5.23
2022-10-17T15:26:42.107Z,4.50
2022-10-17T15:27:53.978Z,4.57
2022-10-17T15:29:05.557Z,4.87
2022-10-17T15:30:21.779Z,3.73
2022-10-17T15:31:35.383Z,2.80
2022-10-17T15:32:46.892Z,2.70
2022-10-17T15:33:58.361Z,2.33
2022-10-17T15:35:12.061Z,1.97
2022-10-17T15:36:23.615Z,2.40
2022-10-17T15:37:35.175Z,3.33
2022-10-17T15:38:46.736Z,3.70
2022-10-17T15:39:58.283Z,4.00
2022-10-17T15:41:12.405Z,3.30
2022-10-17T15:42:27.678Z,4.67
2022-10-17T15:43:39.184Z,5.03
2022-10-17T15:44:50.714Z,3.83
2022-10-17T15:46:02.162Z,3.33
2022-10-17T15:47:24.729Z,3.97
2022-10-17T15:48:36.154Z,6.07
2022-10-17T15:49:47.685Z,6.80
2022-10-17T15:50:59.176Z,5.87
2022-10-17T15:52:10.922Z,4.23
2022-10-17T15:53:23.690Z,4.23
2022-10-17T15:54:35.118Z,2.73
2022-10-17T15:55:50.130Z,5.57
2022-10-17T15:57:01.564Z,16.13
2022-10-17T15:58:15.252Z,12.80
2022-10-17T15:59:30.369Z,5.77
2022-10-17T16:00:41.917Z,3.07
2022-10-17T16:01:53.465Z,3.17
2022-10-17T16:03:04.904Z,2.20
2022-10-17T16:04:17.146Z,4.17
2022-10-17T16:05:29.756Z,6.13
2022-10-17T16:06:41.985Z,6.60
2022-10-17T16:07:53.731Z,6.33
2022-10-17T16:09:05.396Z,4.87
2022-10-17T16:10:17.151Z,5.33
2022-10-17T16:11:33.433Z,5.17
2022-10-17T16:12:45.260Z,5.97
2022-10-17T16:13:58.290Z,5.80
2022-10-17T16:15:29.273Z,7.00
2022-10-17T16:16:40.931Z,8.53
2022-10-17T16:17:53.175Z,6.43
2022-10-17T16:19:04.804Z,6.80
2022-10-17T16:20:19.763Z,6.27
2022-10-17T16:21:33.587Z,5.23
2022-10-17T16:22:45.442Z,4.23
2022-10-17T16:23:57.701Z,4.47
2022-10-17T16:25:19.657Z,3.47
2022-10-17T16:26:31.572Z,3.33
2022-10-17T16:27:43.454Z,2.93
2022-10-17T16:28:58.336Z,3.73
2022-10-17T16:30:09.924Z,2.57
2022-10-17T16:31:25.915Z,2.10
2022-10-17T16:32:37.451Z,2.47
2022-10-17T16:33:50.650Z,1.90
2022-10-17T16:35:02.137Z,2.37
2022-10-17T16:36:13.631Z,2.43
2022-10-17T16:37:25.143Z,2.50
2022-10-17T16:38:36.737Z,2.90
2022-10-17T16:39:52.495Z,3.50
2022-10-17T16:41:04.522Z,8.80
2022-10-17T16:42:16.015Z,6.20
2022-10-17T16:43:27.469Z,5.37